Carrier Princess — CZ3582 — position and weather

sailwx.info

Track history (hours):
 
Tides and Currents Weather Stations Pressure Air Temp Water Temp Dewpoint Dewpoint Depression Visibility Wind Speed Wind Dir Waves Ship Positions

Carrier Princess

Last reported at 2014-Oct-31 04:33 UTC. Time now 2014-Oct-31 05:37 UTC.
Position N 49°13' W 123°50'.

Length 112 m; draft 3 m.

Type: Cargo ship. MMSI: 316003656.

Date/timePositionNaut miles runAvg speedWind from/ knotsBaromVisibWave heightAir tempDewpointWater temp
2014-Oct-31 04:33N 49°13' W 123°50'5 4.5
2014-Oct-31 03:33N 49°10' W 123°56'0 0.1
2014-Oct-31 02:33N 49°10' W 123°56'1111.0
2014-Oct-31 01:33N 49°11' W 123°39'1414.1
2014-Oct-31 00:34N 49°06' W 123°19'1111.5
2014-Oct-30 23:33N 49°09' W 123°02'0 0.0
2014-Oct-30 22:34N 49°09' W 123°02'5 4.7
2014-Oct-30 21:33N 49°06' W 123°09'9 9.1
2014-Oct-30 20:33N 49°01' W 123°19'1111.3
2014-Oct-30 19:33N 48°49' W 123°20'9 8.5
2014-Oct-30 18:33N 48°41' W 123°24'0 0.0
2014-Oct-30 17:33N 48°41' W 123°24'0 0.0
2014-Oct-30 16:33N 48°41' W 123°24'0 0.0
2014-Oct-30 15:33N 48°41' W 123°24'0 0.0
2014-Oct-30 14:33N 48°41' W 123°24'0 0.0
2014-Oct-30 13:33N 48°41' W 123°24'0 0.0
2014-Oct-30 12:33N 48°41' W 123°24'2 2.4
2014-Oct-30 11:33N 48°43' W 123°21'1211.7
2014-Oct-30 10:33N 48°54' W 123°18'1212.5
2014-Oct-30 09:34N 49°07' W 123°17'1010.2
2014-Oct-30 08:33N 49°09' W 123°02'0 0.0
2014-Oct-30 07:33N 49°09' W 123°02'9 9.1
2014-Oct-30 06:33N 49°07' W 123°16'10 9.6
2014-Oct-30 05:33N 49°08' W 123°30'1212.3
2014-Oct-30 04:34N 49°13' W 123°48'6 5.9
2014-Oct-30 03:33N 49°10' W 123°56'0 0.1
2014-Oct-30 02:34N 49°10' W 123°56'10 9.9
2014-Oct-30 01:33N 49°12' W 123°41'1312.9
2014-Oct-30 00:33N 49°07' W 123°23'1313.3
2014-Oct-29 23:34N 49°09' W 123°02'0 0.3
2014-Oct-29 22:34N 49°09' W 123°02'6 5.5
2014-Oct-29 21:34N 49°07' W 123°10'8 8.3
2014-Oct-29 20:33N 49°01' W 123°18'1111.4
2014-Oct-29 19:34N 48°49' W 123°20'8 8.4
2014-Oct-29 18:33N 48°41' W 123°24'0 0.0
2014-Oct-29 17:33N 48°41' W 123°24'0 0.0
2014-Oct-29 16:33N 48°41' W 123°24'0 0.0
2014-Oct-29 15:33N 48°41' W 123°24'0 0.0
2014-Oct-29 14:33N 48°41' W 123°24'0 0.0
2014-Oct-29 13:33N 48°41' W 123°24'0 0.0
2014-Oct-29 12:33N 48°41' W 123°24'4 3.6
2014-Oct-29 11:34N 48°44' W 123°21'1211.8
2014-Oct-29 10:34N 48°56' W 123°19'1212.4
2014-Oct-29 09:33N 49°08' W 123°14'8 8.0
2014-Oct-29 08:33N 49°09' W 123°02'0 0.0
2014-Oct-29 07:33N 49°09' W 123°02'7 7.4
2014-Oct-29 06:33N 49°08' W 123°13'1111.2
2014-Oct-29 05:33N 49°09' W 123°30'1313.1
2014-Oct-29 04:33N 49°13' W 123°49'5 5.0
2014-Oct-29 03:32N 49°10' W 123°56'0 0.2
2014-Oct-29 02:34N 49°10' W 123°55'1312.8
2014-Oct-29 01:33N 49°11' W 123°36'1414.4
2014-Oct-29 00:34N 49°08' W 123°14'8 8.1
2014-Oct-28 23:33N 49°09' W 123°02'0 0.0
2014-Oct-28 22:33N 49°09' W 123°02'4 4.1
2014-Oct-28 21:33N 49°06' W 123°08'9 9.1
2014-Oct-28 20:33N 49°01' W 123°19'1212.0
2014-Oct-28 19:33N 48°49' W 123°20'8 8.5
2014-Oct-28 18:34N 48°41' W 123°24'0 0.0
2014-Oct-28 17:32N 48°41' W 123°24'0 0.0
2014-Oct-28 16:33N 48°41' W 123°24'0 0.0
2014-Oct-28 15:33N 48°41' W 123°24'0 0.0
2014-Oct-28 14:33N 48°41' W 123°24'0 0.0
2014-Oct-28 13:33N 48°41' W 123°24'0 0.0
2014-Oct-28 12:33N 48°41' W 123°24'5 4.7
2014-Oct-28 11:33N 48°45' W 123°21'1313.3
2014-Oct-28 10:33N 48°59' W 123°20'1212.0
2014-Oct-28 09:34N 49°07' W 123°07'4 3.6
2014-Oct-28 08:33N 49°09' W 123°02'0 0.0
2014-Oct-28 07:33N 49°09' W 123°02'9 9.1
2014-Oct-28 06:33N 49°07' W 123°16'1211.6
2014-Oct-28 05:33N 49°09' W 123°33'1312.8
2014-Oct-28 04:34N 49°12' W 123°52'3 3.2
2014-Oct-28 03:33N 49°10' W 123°56'0 0.2
2014-Oct-28 02:33N 49°10' W 123°55'1110.7
2014-Oct-28 01:33N 49°12' W 123°39'1313.0
2014-Oct-28 00:33N 49°07' W 123°21'1212.5
2014-Oct-27 23:34N 49°09' W 123°02'0 0.1
2014-Oct-27 22:33N 49°09' W 123°02'0 0.1
2014-Oct-27 21:33N 49°09' W 123°02'0 0.0
2014-Oct-27 20:33N 49°09' W 123°02'0 0.0
2014-Oct-27 19:33N 49°09' W 123°02'0 0.0
2014-Oct-27 18:33N 49°09' W 123°02'0 0.0
2014-Oct-27 17:33N 49°09' W 123°02'0 0.0
2014-Oct-27 16:33N 49°09' W 123°02'0 0.0
2014-Oct-27 15:33N 49°09' W 123°02'0 0.0
2014-Oct-27 14:33N 49°09' W 123°02'0 0.0
2014-Oct-27 13:33N 49°09' W 123°02'0 0.0
2014-Oct-27 12:33N 49°09' W 123°02'0 0.0
2014-Oct-27 11:33N 49°09' W 123°02'0 0.0
2014-Oct-27 10:33N 49°09' W 123°02'0 0.0
2014-Oct-27 09:33N 49°09' W 123°02'0 0.0
2014-Oct-27 08:33N 49°09' W 123°02'0 0.0
2014-Oct-27 07:33N 49°09' W 123°02'0 0.0
2014-Oct-27 06:33N 49°09' W 123°02'0 0.0
2014-Oct-27 05:33N 49°09' W 123°02'0 0.0
2014-Oct-27 04:33N 49°09' W 123°02'0 0.0
2014-Oct-27 03:33N 49°09' W 123°02'0 0.0
2014-Oct-27 02:33N 49°09' W 123°02'0 0.0
2014-Oct-27 01:33N 49°09' W 123°02'0 0.0
2014-Oct-27 00:34N 49°09' W 123°02'0 0.0
2014-Oct-26 23:33N 49°09' W 123°02'0 0.0
2014-Oct-26 22:33N 49°09' W 123°02'0 0.0
2014-Oct-26 21:33N 49°09' W 123°02'0 0.0
2014-Oct-26 20:33N 49°09' W 123°02'0 0.0
2014-Oct-26 19:33N 49°09' W 123°02'0 0.0
2014-Oct-26 18:33N 49°09' W 123°02'0 0.0
2014-Oct-26 17:33N 49°09' W 123°02'0 0.0
2014-Oct-26 16:33N 49°09' W 123°02'0 0.0
2014-Oct-26 15:33N 49°09' W 123°02'3 2.7
2014-Oct-26 14:33N 49°07' W 123°05'1010.4
2014-Oct-26 13:33N 49°06' W 123°21'10 9.7
2014-Oct-26 12:33N 49°10' W 123°35'1010.0
2014-Oct-26 11:33N 49°13' W 123°50'5 4.9
2014-Oct-26 10:33N 49°10' W 123°56'0 0.0
2014-Oct-26 09:33N 49°10' W 123°56'1 0.7
2014-Oct-26 08:33N 49°10' W 123°55'8 8.3
2014-Oct-26 07:33N 49°12' W 123°42'10 9.9
2014-Oct-26 06:33N 49°08' W 123°28'1110.5
2014-Oct-26 05:34N 49°07' W 123°12'7 6.6
2014-Oct-26 04:33N 49°09' W 123°02'0 0.0
2014-Oct-26 03:33N 49°09' W 123°02'0 0.0
2014-Oct-26 02:34N 49°09' W 123°02'0 0.0
2014-Oct-26 01:33N 49°09' W 123°02'0 0.0
2014-Oct-26 00:34N 49°09' W 123°02'0 0.0
2014-Oct-25 23:34N 49°09' W 123°02'0 0.0
2014-Oct-25 22:34N 49°09' W 123°02'4 4.4
2014-Oct-25 21:33N 49°06' W 123°08'1110.9
2014-Oct-25 20:33N 49°07' W 123°25'1313.1
2014-Oct-25 19:33N 49°12' W 123°43'8 8.3
2014-Oct-25 18:33N 49°10' W 123°56'0 0.0
2014-Oct-25 17:33N 49°10' W 123°56'0 0.0
2014-Oct-25 16:33N 49°10' W 123°56'0 0.0
2014-Oct-25 15:33N 49°10' W 123°56'0 0.0
2014-Oct-25 14:33N 49°10' W 123°56'0 0.0
2014-Oct-25 13:33N 49°10' W 123°56'0 0.0
2014-Oct-25 12:33N 49°10' W 123°56'4 4.0
2014-Oct-25 11:33N 49°13' W 123°52'1111.2
2014-Oct-25 10:33N 49°10' W 123°35'1212.0
2014-Oct-25 09:33N 49°07' W 123°18'1010.3
2014-Oct-25 08:33N 49°09' W 123°02'0 0.0
2014-Oct-25 07:33N 49°09' W 123°02'6 5.9
2014-Oct-25 06:33N 49°07' W 123°11'1110.5
2014-Oct-25 05:33N 49°08' W 123°27'1414.1
2014-Oct-25 04:34N 49°13' W 123°47'6 6.4
2014-Oct-25 03:33N 49°10' W 123°56'0 0.3
2014-Oct-25 02:34N 49°10' W 123°55'1110.9
2014-Oct-25 01:33N 49°11' W 123°39'1212.4
2014-Oct-25 00:33N 49°07' W 123°21'1312.6
2014-Oct-24 23:33N 49°09' W 123°02'0 0.2
2014-Oct-24 22:33N 49°09' W 123°02'5 5.2
2014-Oct-24 21:33N 49°07' W 123°09'8 7.9
2014-Oct-24 20:33N 49°01' W 123°18'1111.5
2014-Oct-24 19:33N 48°50' W 123°20'9 8.7
2014-Oct-24 18:33N 48°41' W 123°24'0 0.0
2014-Oct-24 17:33N 48°41' W 123°24'0 0.0
2014-Oct-24 16:33N 48°41' W 123°24'0 0.0
2014-Oct-24 15:33N 48°41' W 123°24'0 0.0
2014-Oct-24 14:33N 48°41' W 123°24'0 0.0
2014-Oct-24 13:33N 48°41' W 123°24'0 0.0
2014-Oct-24 12:33N 48°41' W 123°24'3 3.1
2014-Oct-24 11:33N 48°43' W 123°21'1211.6
2014-Oct-24 10:33N 48°55' W 123°18'1211.6
2014-Oct-24 09:33N 49°06' W 123°18'1010.4
2014-Oct-24 08:33N 49°09' W 123°02'0 0.0
2014-Oct-24 07:33N 49°09' W 123°02'7 7.3
2014-Oct-24 06:34N 49°08' W 123°13'1111.3
2014-Oct-24 05:33N 49°08' W 123°30'1313.1
2014-Oct-24 04:34N 49°13' W 123°49'6 5.6
2014-Oct-24 03:33N 49°10' W 123°56'1 0.6
2014-Oct-24 02:34N 49°10' W 123°55'1111.2
2014-Oct-24 01:33N 49°11' W 123°38'1313.1
2014-Oct-24 00:34N 49°06' W 123°19'1111.4
2014-Oct-23 23:33N 49°09' W 123°02'0 0.2
2014-Oct-23 22:34N 49°09' W 123°02'5 4.9
2014-Oct-23 21:33N 49°07' W 123°09'8 7.9
2014-Oct-23 20:34N 49°02' W 123°18'1211.8
2014-Oct-23 19:31N 48°49' W 123°21'9 9.0
2014-Oct-23 18:33N 48°41' W 123°24'0 0.0
2014-Oct-23 17:33N 48°41' W 123°24'0 0.0
2014-Oct-23 16:33N 48°41' W 123°24'0 0.0
2014-Oct-23 15:33N 48°41' W 123°24'0 0.0
2014-Oct-23 14:33N 48°41' W 123°24'0 0.0
2014-Oct-23 13:33N 48°41' W 123°24'0 0.0
2014-Oct-23 12:33N 48°41' W 123°24'5 4.5
2014-Oct-23 11:33N 48°45' W 123°21'1111.1
2014-Oct-23 10:33N 48°56' W 123°19'1211.9
2014-Oct-23 09:34N 49°08' W 123°15'8 8.2
2014-Oct-23 08:33N 49°09' W 123°02'0 0.0
2014-Oct-23 07:34N 49°09' W 123°02'8 8.1
2014-Oct-23 06:34N 49°08' W 123°14'1110.9
2014-Oct-23 05:33N 49°09' W 123°31'1312.9
2014-Oct-23 04:34N 49°13' W 123°50'5 4.7
2014-Oct-23 03:34N 49°10' W 123°56'1 0.5
2014-Oct-23 02:33N 49°10' W 123°55'1010.2
2014-Oct-23 01:34N 49°12' W 123°40'1212.2
2014-Oct-23 00:33N 49°06' W 123°23'1212.3
2014-Oct-22 23:33N 49°07' W 123°04'2 1.9
2014-Oct-22 22:33N 49°09' W 123°02'5 5.4
2014-Oct-22 21:33N 49°07' W 123°10'9 8.6
2014-Oct-22 20:33N 49°00' W 123°18'1211.9
2014-Oct-22 19:33N 48°48' W 123°21'7 7.4
2014-Oct-22 18:33N 48°41' W 123°24'1 1.0
2014-Oct-22 17:33N 48°42' W 123°23'1414.2
2014-Oct-22 16:33N 48°56' W 123°19'1312.7
2014-Oct-22 15:33N 49°07' W 123°12'6 6.5
2014-Oct-22 14:33N 49°09' W 123°02'0 0.0
2014-Oct-22 13:33N 49°09' W 123°02'0 0.0
2014-Oct-22 12:33N 49°09' W 123°02'0 0.0
2014-Oct-22 11:33N 49°09' W 123°02'0 0.0
2014-Oct-22 10:33N 49°09' W 123°02'0 0.0
2014-Oct-22 09:33N 49°09' W 123°02'0 0.0
2014-Oct-22 08:33N 49°09' W 123°02'0 0.0
2014-Oct-22 07:33N 49°09' W 123°02'6 6.1
2014-Oct-22 06:33N 49°07' W 123°11'1212.0
2014-Oct-22 05:34N 49°08' W 123°29'1414.4
2014-Oct-22 04:33N 49°13' W 123°50'5 4.7
2014-Oct-22 03:33N 49°10' W 123°56'0 0.1
2014-Oct-22 02:33N 49°10' W 123°56'1110.9
2014-Oct-22 01:33N 49°12' W 123°39'1313.3
2014-Oct-22 00:33N 49°06' W 123°20'1212.1
2014-Oct-21 23:33N 49°09' W 123°02'0 0.0
2014-Oct-21 22:33N 49°09' W 123°02'0 0.0
2014-Oct-21 21:33N 49°09' W 123°02'7 6.6
2014-Oct-21 20:33N 49°07' W 123°12'1212.3
2014-Oct-21 19:33N 48°56' W 123°18'1514.5
2014-Oct-21 18:33N 48°42' W 123°24'0 0.4
2014-Oct-21 17:33N 48°41' W 123°24'0 0.0
2014-Oct-21 16:31N 48°41' W 123°24'0 0.0
2014-Oct-21 15:33N 48°41' W 123°24'0 0.0
2014-Oct-21 14:33N 48°41' W 123°24'0 0.0
2014-Oct-21 13:33N 48°41' W 123°24'0 0.0
2014-Oct-21 12:32N 48°41' W 123°24'4 3.8
2014-Oct-21 11:33N 48°44' W 123°21'1111.3
2014-Oct-21 10:33N 48°55' W 123°18'1312.8
2014-Oct-21 09:33N 49°08' W 123°13'7 7.4
2014-Oct-21 08:34N 49°09' W 123°02'0 0.0
2014-Oct-21 07:34N 49°09' W 123°02'7 6.7
2014-Oct-21 06:34N 49°08' W 123°12'1111.0
2014-Oct-21 05:33N 49°08' W 123°29'  
Track history (hours):
 
Tides and Currents Weather Stations Pressure Air Temp Water Temp Dewpoint Dewpoint Depression Visibility Wind Speed Wind Dir Waves Ship Positions

Carrier Princess

Last reported at 2014-Oct-31 04:33 UTC. Time now 2014-Oct-31 05:37 UTC.
Position N 49°13' W 123°50'.

Length 112 m; draft 3 m.

Type: Cargo ship. MMSI: 316003656.

Date/timePositionNaut miles runAvg speedWind from/ knotsBaromVisibWave heightAir tempDewpointWater temp
2014-Oct-31 04:33N 49°13' W 123°50'5 4.5
2014-Oct-31 03:33N 49°10' W 123°56'0 0.1
2014-Oct-31 02:33N 49°10' W 123°56'1111.0
2014-Oct-31 01:33N 49°11' W 123°39'1414.1
2014-Oct-31 00:34N 49°06' W 123°19'1111.5
2014-Oct-30 23:33N 49°09' W 123°02'0 0.0
2014-Oct-30 22:34N 49°09' W 123°02'5 4.7
2014-Oct-30 21:33N 49°06' W 123°09'9 9.1
2014-Oct-30 20:33N 49°01' W 123°19'1111.3
2014-Oct-30 19:33N 48°49' W 123°20'9 8.5
2014-Oct-30 18:33N 48°41' W 123°24'0 0.0
2014-Oct-30 17:33N 48°41' W 123°24'0 0.0
2014-Oct-30 16:33N 48°41' W 123°24'0 0.0
2014-Oct-30 15:33N 48°41' W 123°24'0 0.0
2014-Oct-30 14:33N 48°41' W 123°24'0 0.0
2014-Oct-30 13:33N 48°41' W 123°24'0 0.0
2014-Oct-30 12:33N 48°41' W 123°24'2 2.4
2014-Oct-30 11:33N 48°43' W 123°21'1211.7
2014-Oct-30 10:33N 48°54' W 123°18'1212.5
2014-Oct-30 09:34N 49°07' W 123°17'1010.2
2014-Oct-30 08:33N 49°09' W 123°02'0 0.0
2014-Oct-30 07:33N 49°09' W 123°02'9 9.1
2014-Oct-30 06:33N 49°07' W 123°16'10 9.6
2014-Oct-30 05:33N 49°08' W 123°30'1212.3
2014-Oct-30 04:34N 49°13' W 123°48'6 5.9
2014-Oct-30 03:33N 49°10' W 123°56'0 0.1
2014-Oct-30 02:34N 49°10' W 123°56'10 9.9
2014-Oct-30 01:33N 49°12' W 123°41'1312.9
2014-Oct-30 00:33N 49°07' W 123°23'1313.3
2014-Oct-29 23:34N 49°09' W 123°02'0 0.3
2014-Oct-29 22:34N 49°09' W 123°02'6 5.5
2014-Oct-29 21:34N 49°07' W 123°10'8 8.3
2014-Oct-29 20:33N 49°01' W 123°18'1111.4
2014-Oct-29 19:34N 48°49' W 123°20'8 8.4
2014-Oct-29 18:33N 48°41' W 123°24'0 0.0
2014-Oct-29 17:33N 48°41' W 123°24'0 0.0
2014-Oct-29 16:33N 48°41' W 123°24'0 0.0
2014-Oct-29 15:33N 48°41' W 123°24'0 0.0
2014-Oct-29 14:33N 48°41' W 123°24'0 0.0
2014-Oct-29 13:33N 48°41' W 123°24'0 0.0
2014-Oct-29 12:33N 48°41' W 123°24'4 3.6
2014-Oct-29 11:34N 48°44' W 123°21'1211.8
2014-Oct-29 10:34N 48°56' W 123°19'1212.4
2014-Oct-29 09:33N 49°08' W 123°14'8 8.0
2014-Oct-29 08:33N 49°09' W 123°02'0 0.0
2014-Oct-29 07:33N 49°09' W 123°02'7 7.4
2014-Oct-29 06:33N 49°08' W 123°13'1111.2
2014-Oct-29 05:33N 49°09' W 123°30'1313.1
2014-Oct-29 04:33N 49°13' W 123°49'5 5.0
2014-Oct-29 03:32N 49°10' W 123°56'0 0.2
2014-Oct-29 02:34N 49°10' W 123°55'1312.8
2014-Oct-29 01:33N 49°11' W 123°36'1414.4
2014-Oct-29 00:34N 49°08' W 123°14'8 8.1
2014-Oct-28 23:33N 49°09' W 123°02'0 0.0
2014-Oct-28 22:33N 49°09' W 123°02'4 4.1
2014-Oct-28 21:33N 49°06' W 123°08'9 9.1
2014-Oct-28 20:33N 49°01' W 123°19'1212.0
2014-Oct-28 19:33N 48°49' W 123°20'8 8.5
2014-Oct-28 18:34N 48°41' W 123°24'0 0.0
2014-Oct-28 17:32N 48°41' W 123°24'0 0.0
2014-Oct-28 16:33N 48°41' W 123°24'0 0.0
2014-Oct-28 15:33N 48°41' W 123°24'0 0.0
2014-Oct-28 14:33N 48°41' W 123°24'0 0.0
2014-Oct-28 13:33N 48°41' W 123°24'0 0.0
2014-Oct-28 12:33N 48°41' W 123°24'5 4.7
2014-Oct-28 11:33N 48°45' W 123°21'1313.3
2014-Oct-28 10:33N 48°59' W 123°20'1212.0
2014-Oct-28 09:34N 49°07' W 123°07'4 3.6
2014-Oct-28 08:33N 49°09' W 123°02'0 0.0
2014-Oct-28 07:33N 49°09' W 123°02'9 9.1
2014-Oct-28 06:33N 49°07' W 123°16'1211.6
2014-Oct-28 05:33N 49°09' W 123°33'1312.8
2014-Oct-28 04:34N 49°12' W 123°52'3 3.2
2014-Oct-28 03:33N 49°10' W 123°56'0 0.2
2014-Oct-28 02:33N 49°10' W 123°55'1110.7
2014-Oct-28 01:33N 49°12' W 123°39'1313.0
2014-Oct-28 00:33N 49°07' W 123°21'1212.5
2014-Oct-27 23:34N 49°09' W 123°02'0 0.1
2014-Oct-27 22:33N 49°09' W 123°02'0 0.1
2014-Oct-27 21:33N 49°09' W 123°02'0 0.0
2014-Oct-27 20:33N 49°09' W 123°02'0 0.0
2014-Oct-27 19:33N 49°09' W 123°02'0 0.0
2014-Oct-27 18:33N 49°09' W 123°02'0 0.0
2014-Oct-27 17:33N 49°09' W 123°02'0 0.0
2014-Oct-27 16:33N 49°09' W 123°02'0 0.0
2014-Oct-27 15:33N 49°09' W 123°02'0 0.0
2014-Oct-27 14:33N 49°09' W 123°02'0 0.0
2014-Oct-27 13:33N 49°09' W 123°02'0 0.0
2014-Oct-27 12:33N 49°09' W 123°02'0 0.0
2014-Oct-27 11:33N 49°09' W 123°02'0 0.0
2014-Oct-27 10:33N 49°09' W 123°02'0 0.0
2014-Oct-27 09:33N 49°09' W 123°02'0 0.0
2014-Oct-27 08:33N 49°09' W 123°02'0 0.0
2014-Oct-27 07:33N 49°09' W 123°02'0 0.0
2014-Oct-27 06:33N 49°09' W 123°02'0 0.0
2014-Oct-27 05:33N 49°09' W 123°02'0 0.0
2014-Oct-27 04:33N 49°09' W 123°02'0 0.0
2014-Oct-27 03:33N 49°09' W 123°02'0 0.0
2014-Oct-27 02:33N 49°09' W 123°02'0 0.0
2014-Oct-27 01:33N 49°09' W 123°02'0 0.0
2014-Oct-27 00:34N 49°09' W 123°02'0 0.0
2014-Oct-26 23:33N 49°09' W 123°02'0 0.0
2014-Oct-26 22:33N 49°09' W 123°02'0 0.0
2014-Oct-26 21:33N 49°09' W 123°02'0 0.0
2014-Oct-26 20:33N 49°09' W 123°02'0 0.0
2014-Oct-26 19:33N 49°09' W 123°02'0 0.0
2014-Oct-26 18:33N 49°09' W 123°02'0 0.0
2014-Oct-26 17:33N 49°09' W 123°02'0 0.0
2014-Oct-26 16:33N 49°09' W 123°02'0 0.0
2014-Oct-26 15:33N 49°09' W 123°02'3 2.7
2014-Oct-26 14:33N 49°07' W 123°05'1010.4
2014-Oct-26 13:33N 49°06' W 123°21'10 9.7
2014-Oct-26 12:33N 49°10' W 123°35'1010.0
2014-Oct-26 11:33N 49°13' W 123°50'5 4.9
2014-Oct-26 10:33N 49°10' W 123°56'0 0.0
2014-Oct-26 09:33N 49°10' W 123°56'1 0.7
2014-Oct-26 08:33N 49°10' W 123°55'8 8.3
2014-Oct-26 07:33N 49°12' W 123°42'10 9.9
2014-Oct-26 06:33N 49°08' W 123°28'1110.5
2014-Oct-26 05:34N 49°07' W 123°12'7 6.6
2014-Oct-26 04:33N 49°09' W 123°02'0 0.0
2014-Oct-26 03:33N 49°09' W 123°02'0 0.0
2014-Oct-26 02:34N 49°09' W 123°02'0 0.0
2014-Oct-26 01:33N 49°09' W 123°02'0 0.0
2014-Oct-26 00:34N 49°09' W 123°02'0 0.0
2014-Oct-25 23:34N 49°09' W 123°02'0 0.0
2014-Oct-25 22:34N 49°09' W 123°02'4 4.4
2014-Oct-25 21:33N 49°06' W 123°08'1110.9
2014-Oct-25 20:33N 49°07' W 123°25'1313.1
2014-Oct-25 19:33N 49°12' W 123°43'8 8.3
2014-Oct-25 18:33N 49°10' W 123°56'0 0.0
2014-Oct-25 17:33N 49°10' W 123°56'0 0.0
2014-Oct-25 16:33N 49°10' W 123°56'0 0.0
2014-Oct-25 15:33N 49°10' W 123°56'0 0.0
2014-Oct-25 14:33N 49°10' W 123°56'0 0.0
2014-Oct-25 13:33N 49°10' W 123°56'0 0.0
2014-Oct-25 12:33N 49°10' W 123°56'4 4.0
2014-Oct-25 11:33N 49°13' W 123°52'1111.2
2014-Oct-25 10:33N 49°10' W 123°35'1212.0
2014-Oct-25 09:33N 49°07' W 123°18'1010.3
2014-Oct-25 08:33N 49°09' W 123°02'0 0.0
2014-Oct-25 07:33N 49°09' W 123°02'6 5.9
2014-Oct-25 06:33N 49°07' W 123°11'1110.5
2014-Oct-25 05:33N 49°08' W 123°27'1414.1
2014-Oct-25 04:34N 49°13' W 123°47'6 6.4
2014-Oct-25 03:33N 49°10' W 123°56'0 0.3
2014-Oct-25 02:34N 49°10' W 123°55'1110.9
2014-Oct-25 01:33N 49°11' W 123°39'1212.4
2014-Oct-25 00:33N 49°07' W 123°21'1312.6
2014-Oct-24 23:33N 49°09' W 123°02'0 0.2
2014-Oct-24 22:33N 49°09' W 123°02'5 5.2
2014-Oct-24 21:33N 49°07' W 123°09'8 7.9
2014-Oct-24 20:33N 49°01' W 123°18'1111.5
2014-Oct-24 19:33N 48°50' W 123°20'9 8.7
2014-Oct-24 18:33N 48°41' W 123°24'0 0.0
2014-Oct-24 17:33N 48°41' W 123°24'0 0.0
2014-Oct-24 16:33N 48°41' W 123°24'0 0.0
2014-Oct-24 15:33N 48°41' W 123°24'0 0.0
2014-Oct-24 14:33N 48°41' W 123°24'0 0.0
2014-Oct-24 13:33N 48°41' W 123°24'0 0.0
2014-Oct-24 12:33N 48°41' W 123°24'3 3.1
2014-Oct-24 11:33N 48°43' W 123°21'1211.6
2014-Oct-24 10:33N 48°55' W 123°18'1211.6
2014-Oct-24 09:33N 49°06' W 123°18'1010.4
2014-Oct-24 08:33N 49°09' W 123°02'0 0.0
2014-Oct-24 07:33N 49°09' W 123°02'7 7.3
2014-Oct-24 06:34N 49°08' W 123°13'1111.3
2014-Oct-24 05:33N 49°08' W 123°30'1313.1
2014-Oct-24 04:34N 49°13' W 123°49'6 5.6
2014-Oct-24 03:33N 49°10' W 123°56'1 0.6
2014-Oct-24 02:34N 49°10' W 123°55'1111.2
2014-Oct-24 01:33N 49°11' W 123°38'1313.1
2014-Oct-24 00:34N 49°06' W 123°19'1111.4
2014-Oct-23 23:33N 49°09' W 123°02'0 0.2
2014-Oct-23 22:34N 49°09' W 123°02'5 4.9
2014-Oct-23 21:33N 49°07' W 123°09'8 7.9
2014-Oct-23 20:34N 49°02' W 123°18'1211.8
2014-Oct-23 19:31N 48°49' W 123°21'9 9.0
2014-Oct-23 18:33N 48°41' W 123°24'0 0.0
2014-Oct-23 17:33N 48°41' W 123°24'0 0.0
2014-Oct-23 16:33N 48°41' W 123°24'0 0.0
2014-Oct-23 15:33N 48°41' W 123°24'0 0.0
2014-Oct-23 14:33N 48°41' W 123°24'0 0.0
2014-Oct-23 13:33N 48°41' W 123°24'0 0.0
2014-Oct-23 12:33N 48°41' W 123°24'5 4.5
2014-Oct-23 11:33N 48°45' W 123°21'1111.1
2014-Oct-23 10:33N 48°56' W 123°19'1211.9
2014-Oct-23 09:34N 49°08' W 123°15'8 8.2
2014-Oct-23 08:33N 49°09' W 123°02'0 0.0
2014-Oct-23 07:34N 49°09' W 123°02'8 8.1
2014-Oct-23 06:34N 49°08' W 123°14'1110.9
2014-Oct-23 05:33N 49°09' W 123°31'1312.9
2014-Oct-23 04:34N 49°13' W 123°50'5 4.7
2014-Oct-23 03:34N 49°10' W 123°56'1 0.5
2014-Oct-23 02:33N 49°10' W 123°55'1010.2
2014-Oct-23 01:34N 49°12' W 123°40'1212.2
2014-Oct-23 00:33N 49°06' W 123°23'1212.3
2014-Oct-22 23:33N 49°07' W 123°04'2 1.9
2014-Oct-22 22:33N 49°09' W 123°02'5 5.4
2014-Oct-22 21:33N 49°07' W 123°10'9 8.6
2014-Oct-22 20:33N 49°00' W 123°18'1211.9
2014-Oct-22 19:33N 48°48' W 123°21'7 7.4
2014-Oct-22 18:33N 48°41' W 123°24'1 1.0
2014-Oct-22 17:33N 48°42' W 123°23'1414.2
2014-Oct-22 16:33N 48°56' W 123°19'1312.7
2014-Oct-22 15:33N 49°07' W 123°12'6 6.5
2014-Oct-22 14:33N 49°09' W 123°02'0 0.0
2014-Oct-22 13:33N 49°09' W 123°02'0 0.0
2014-Oct-22 12:33N 49°09' W 123°02'0 0.0
2014-Oct-22 11:33N 49°09' W 123°02'0 0.0
2014-Oct-22 10:33N 49°09' W 123°02'0 0.0
2014-Oct-22 09:33N 49°09' W 123°02'0 0.0
2014-Oct-22 08:33N 49°09' W 123°02'0 0.0
2014-Oct-22 07:33N 49°09' W 123°02'6 6.1
2014-Oct-22 06:33N 49°07' W 123°11'1212.0
2014-Oct-22 05:34N 49°08' W 123°29'1414.4
2014-Oct-22 04:33N 49°13' W 123°50'5 4.7
2014-Oct-22 03:33N 49°10' W 123°56'0 0.1
2014-Oct-22 02:33N 49°10' W 123°56'1110.9
2014-Oct-22 01:33N 49°12' W 123°39'1313.3
2014-Oct-22 00:33N 49°06' W 123°20'1212.1
2014-Oct-21 23:33N 49°09' W 123°02'0 0.0
2014-Oct-21 22:33N 49°09' W 123°02'0 0.0
2014-Oct-21 21:33N 49°09' W 123°02'7 6.6
2014-Oct-21 20:33N 49°07' W 123°12'1212.3
2014-Oct-21 19:33N 48°56' W 123°18'1514.5
2014-Oct-21 18:33N 48°42' W 123°24'0 0.4
2014-Oct-21 17:33N 48°41' W 123°24'0 0.0
2014-Oct-21 16:31N 48°41' W 123°24'0 0.0
2014-Oct-21 15:33N 48°41' W 123°24'0 0.0
2014-Oct-21 14:33N 48°41' W 123°24'0 0.0
2014-Oct-21 13:33N 48°41' W 123°24'0 0.0
2014-Oct-21 12:32N 48°41' W 123°24'4 3.8
2014-Oct-21 11:33N 48°44' W 123°21'1111.3
2014-Oct-21 10:33N 48°55' W 123°18'1312.8
2014-Oct-21 09:33N 49°08' W 123°13'7 7.4
2014-Oct-21 08:34N 49°09' W 123°02'0 0.0
2014-Oct-21 07:34N 49°09' W 123°02'7 6.7
2014-Oct-21 06:34N 49°08' W 123°12'1111.0
2014-Oct-21 05:33N 49°08' W 123°29'  

Dump ship's entire track history